createdAt,value
2018-10-05T00:00:51.107Z,6.30
2018-10-05T00:01:51.106Z,7.10
2018-10-05T00:02:51.120Z,6.40
2018-10-05T00:03:51.135Z,6.70
2018-10-05T00:04:51.178Z,7.30
2018-10-05T00:05:51.185Z,7.70
2018-10-05T00:06:51.179Z,7.70
2018-10-05T00:07:51.210Z,7.60
2018-10-05T00:08:51.218Z,8.20
2018-10-05T00:09:51.228Z,7.60
2018-10-05T00:10:51.244Z,7.50
2018-10-05T00:11:51.261Z,7.80
2018-10-05T00:12:51.353Z,7.80
2018-10-05T00:13:51.298Z,8.40
2018-10-05T00:14:51.312Z,7.70
2018-10-05T00:15:51.325Z,7.40
2018-10-05T00:16:51.339Z,7.20
2018-10-05T00:17:51.384Z,7.20
2018-10-05T00:18:51.392Z,8.20
2018-10-05T00:19:51.403Z,7.10
2018-10-05T00:20:51.401Z,6.60
2018-10-05T00:21:51.420Z,6.70
2018-10-05T00:22:51.434Z,7.60
2018-10-05T00:23:51.478Z,7.60
2018-10-05T00:24:51.476Z,7.60
2018-10-05T00:25:51.508Z,8.00
2018-10-05T00:26:51.501Z,7.80
2018-10-05T00:27:51.516Z,8.10
2018-10-05T00:28:51.534Z,8.10
2018-10-05T00:29:51.544Z,9.00
2018-10-05T00:30:51.574Z,8.70
2018-10-05T00:31:51.576Z,8.50
2018-10-05T00:32:51.592Z,8.40
2018-10-05T00:33:51.617Z,8.70
2018-10-05T00:34:51.625Z,8.60
2018-10-05T00:35:51.661Z,9.40
2018-10-05T00:36:51.655Z,9.60
2018-10-05T00:37:51.703Z,8.90
2018-10-05T00:38:51.687Z,9.40
2018-10-05T00:39:51.700Z,9.80
2018-10-05T00:40:51.719Z,11.20
2018-10-05T00:41:51.734Z,9.50
2018-10-05T00:42:51.750Z,9.40
2018-10-05T00:43:51.764Z,9.30
2018-10-05T00:44:51.791Z,9.10
2018-10-05T00:45:51.801Z,9.00
2018-10-05T00:46:51.818Z,8.20
2018-10-05T00:47:51.842Z,8.20
2018-10-05T00:48:51.850Z,8.20
2018-10-05T00:49:51.865Z,7.40
2018-10-05T00:50:51.909Z,7.70
2018-10-05T00:51:51.897Z,7.10
2018-10-05T00:52:51.932Z,7.40
2018-10-05T00:53:51.936Z,7.30
2018-10-05T00:54:51.949Z,6.20
2018-10-05T00:55:51.961Z,7.00
2018-10-05T00:56:51.974Z,6.80
2018-10-05T00:57:51.990Z,6.80
2018-10-05T00:58:52.024Z,6.70
2018-10-05T00:59:52.040Z,6.40
2018-10-05T01:00:52.034Z,7.20
2018-10-05T01:01:52.115Z,7.00
2018-10-05T01:02:52.074Z,7.50
2018-10-05T01:03:52.089Z,8.80
2018-10-05T01:04:52.101Z,7.80
2018-10-05T01:05:52.115Z,8.70
2018-10-05T01:06:52.141Z,10.50
2018-10-05T01:07:52.149Z,9.30
2018-10-05T01:08:52.165Z,9.50
2018-10-05T01:09:52.187Z,9.30
2018-10-05T01:10:52.196Z,9.00
2018-10-05T01:11:52.212Z,9.10
2018-10-05T01:12:52.304Z,9.10
2018-10-05T01:13:52.248Z,8.60
2018-10-05T01:14:52.285Z,7.60
2018-10-05T01:15:52.282Z,7.70
2018-10-05T01:16:52.289Z,8.00
2018-10-05T01:17:52.305Z,7.30
2018-10-05T01:18:52.326Z,7.40
2018-10-05T01:19:52.336Z,7.20
2018-10-05T01:20:52.351Z,6.90
2018-10-05T01:21:52.374Z,7.20
2018-10-05T01:22:52.381Z,7.30
2018-10-05T01:23:52.398Z,7.50
2018-10-05T01:24:52.473Z,7.00
2018-10-05T01:25:52.452Z,6.80
2018-10-05T01:26:52.453Z,7.00
2018-10-05T01:27:52.464Z,7.30
2018-10-05T01:28:52.486Z,6.50
2018-10-05T01:29:52.489Z,6.70
2018-10-05T01:30:52.511Z,6.80
2018-10-05T01:31:52.529Z,6.70
2018-10-05T01:32:52.551Z,6.60
2018-10-05T01:33:52.570Z,7.70
2018-10-05T01:34:52.574Z,7.60
2018-10-05T01:35:52.596Z,8.10
2018-10-05T01:36:52.603Z,6.80
2018-10-05T01:37:52.624Z,7.60
2018-10-05T01:38:52.704Z,7.70
2018-10-05T01:39:52.646Z,6.80
2018-10-05T01:40:52.665Z,6.90
2018-10-05T01:41:52.686Z,7.10
2018-10-05T01:42:52.710Z,6.70
2018-10-05T01:43:52.719Z,7.30
2018-10-05T01:44:52.730Z,6.80
2018-10-05T01:45:52.748Z,6.70
2018-10-05T01:46:52.769Z,7.30
2018-10-05T01:47:52.779Z,6.60
2018-10-05T01:48:52.789Z,6.60
2018-10-05T01:49:52.831Z,6.90
2018-10-05T01:50:52.827Z,7.20
2018-10-05T01:51:52.837Z,7.10
2018-10-05T01:52:52.853Z,7.40
2018-10-05T01:53:52.879Z,7.30
2018-10-05T01:54:52.892Z,8.10
2018-10-05T01:55:52.900Z,7.40
2018-10-05T01:56:52.912Z,6.90
2018-10-05T01:57:52.931Z,7.20
2018-10-05T01:58:52.950Z,7.30
2018-10-05T01:59:52.967Z,7.30
2018-10-05T02:00:52.987Z,7.40
2018-10-05T02:01:53.015Z,7.40
2018-10-05T02:02:53.025Z,6.50
2018-10-05T02:03:53.034Z,6.90
2018-10-05T02:04:53.043Z,6.80
2018-10-05T02:05:53.069Z,7.10
2018-10-05T02:06:53.076Z,6.40
2018-10-05T02:07:53.084Z,6.80
2018-10-05T02:08:53.103Z,6.70
2018-10-05T02:09:53.128Z,7.60
2018-10-05T02:10:53.141Z,7.20
2018-10-05T02:11:53.165Z,7.50
2018-10-05T02:12:53.167Z,7.10
2018-10-05T02:13:53.182Z,6.80
2018-10-05T02:14:53.210Z,7.70
2018-10-05T02:15:53.236Z,7.80
2018-10-05T02:16:53.249Z,7.60
2018-10-05T02:17:53.247Z,8.40
2018-10-05T02:18:53.267Z,8.40
2018-10-05T02:19:53.274Z,8.10
2018-10-05T02:20:53.292Z,8.70
2018-10-05T02:21:53.315Z,7.60
2018-10-05T02:22:53.335Z,8.50
2018-10-05T02:23:53.344Z,8.30
2018-10-05T02:24:53.365Z,7.70
2018-10-05T02:25:53.374Z,8.10
2018-10-05T02:26:53.408Z,8.30
2018-10-05T02:27:53.399Z,7.80
2018-10-05T02:28:53.429Z,7.40
2018-10-05T02:29:53.436Z,7.90
2018-10-05T02:30:53.483Z,7.70
2018-10-05T02:31:53.461Z,6.90
2018-10-05T02:32:53.526Z,7.80
2018-10-05T02:33:53.491Z,6.50
2018-10-05T02:34:53.521Z,7.30
2018-10-05T02:35:53.531Z,6.60
2018-10-05T02:36:53.543Z,7.40
2018-10-05T02:37:53.564Z,6.80
2018-10-05T02:38:53.570Z,6.40
2018-10-05T02:39:53.601Z,7.00
2018-10-05T02:40:53.606Z,6.50
2018-10-05T02:41:53.625Z,7.90
2018-10-05T02:42:53.650Z,7.30
2018-10-05T02:43:53.661Z,7.00
2018-10-05T02:44:53.664Z,7.10
2018-10-05T02:45:53.684Z,6.70
2018-10-05T02:46:53.702Z,6.40
2018-10-05T02:47:53.719Z,6.80
2018-10-05T02:48:53.741Z,7.00
2018-10-05T02:49:53.743Z,7.20
2018-10-05T02:50:53.758Z,6.20
2018-10-05T02:51:53.778Z,6.50
2018-10-05T02:52:53.790Z,6.40
2018-10-05T02:53:53.838Z,7.10
2018-10-05T02:54:53.821Z,6.50
2018-10-05T02:55:53.842Z,7.20
2018-10-05T02:56:53.856Z,6.50
2018-10-05T02:57:53.871Z,7.60
2018-10-05T02:58:53.882Z,7.60
2018-10-05T02:59:53.902Z,7.00
2018-10-05T03:00:53.920Z,7.00
2018-10-05T03:01:53.927Z,6.80
2018-10-05T03:02:53.966Z,7.30
2018-10-05T03:03:53.977Z,7.50
2018-10-05T03:04:53.983Z,7.00
2018-10-05T03:05:54.010Z,7.20
2018-10-05T03:06:54.024Z,6.80
2018-10-05T03:07:54.016Z,7.50
2018-10-05T03:08:54.035Z,7.80
2018-10-05T03:09:54.055Z,7.50
2018-10-05T03:10:54.078Z,8.00
2018-10-05T03:11:54.089Z,9.40
2018-10-05T03:12:54.099Z,8.50
2018-10-05T03:13:54.132Z,7.90
2018-10-05T03:14:54.141Z,8.20
2018-10-05T03:15:54.141Z,7.60
2018-10-05T03:16:54.179Z,7.30
2018-10-05T03:17:54.179Z,7.00
2018-10-05T03:18:54.211Z,8.20
2018-10-05T03:19:54.243Z,7.90
2018-10-05T03:20:54.239Z,7.70
2018-10-05T03:21:54.233Z,8.30
2018-10-05T03:22:54.252Z,9.00
2018-10-05T03:23:54.267Z,8.50
2018-10-05T03:24:54.286Z,9.10
2018-10-05T03:25:54.298Z,8.90
2018-10-05T03:26:54.316Z,8.00
2018-10-05T03:27:54.336Z,9.40
2018-10-05T03:28:54.344Z,9.20
2018-10-05T03:29:54.360Z,9.40
2018-10-05T03:30:54.380Z,9.20
2018-10-05T03:31:54.405Z,9.10
2018-10-05T03:32:54.405Z,9.50
2018-10-05T03:33:54.441Z,8.30
2018-10-05T03:34:54.449Z,9.20
2018-10-05T03:35:54.454Z,8.50
2018-10-05T03:36:54.464Z,8.40
2018-10-05T03:37:54.488Z,8.10
2018-10-05T03:38:54.545Z,7.70
2018-10-05T03:39:54.513Z,7.80
2018-10-05T03:40:54.531Z,16.20
2018-10-05T03:41:54.567Z,7.70
2018-10-05T03:42:54.556Z,6.80
2018-10-05T03:43:54.589Z,6.80
2018-10-05T03:44:54.585Z,6.10
2018-10-05T03:45:54.610Z,6.60
2018-10-05T03:46:54.621Z,7.00
2018-10-05T03:47:54.633Z,6.30
2018-10-05T03:48:54.652Z,6.00
2018-10-05T03:49:54.679Z,6.10
2018-10-05T03:50:54.675Z,6.60
2018-10-05T03:51:54.700Z,5.90
2018-10-05T03:52:54.707Z,6.10
2018-10-05T03:53:54.723Z,6.20
2018-10-05T03:54:54.747Z,6.70
2018-10-05T03:55:54.774Z,6.60
2018-10-05T03:56:54.772Z,7.10
2018-10-05T03:57:54.834Z,6.70
2018-10-05T03:58:54.805Z,6.10
2018-10-05T03:59:54.819Z,5.70
2018-10-05T04:00:54.832Z,7.00
2018-10-05T04:01:54.852Z,6.90
2018-10-05T04:02:54.866Z,7.30
2018-10-05T04:03:54.877Z,7.10
2018-10-05T04:04:54.896Z,6.70
2018-10-05T04:05:54.907Z,6.90
2018-10-05T04:06:54.929Z,7.10
2018-10-05T04:07:54.940Z,7.80
2018-10-05T04:08:54.950Z,6.90
2018-10-05T04:09:54.972Z,7.60
2018-10-05T04:10:54.985Z,7.60
2018-10-05T04:11:54.998Z,7.70
2018-10-05T04:12:55.031Z,7.70
2018-10-05T04:13:55.029Z,7.80
2018-10-05T04:14:55.048Z,8.10
2018-10-05T04:15:55.057Z,8.70
2018-10-05T04:16:55.071Z,7.80
2018-10-05T04:17:55.089Z,7.60
2018-10-05T04:18:55.117Z,6.50
2018-10-05T04:19:55.120Z,7.50
2018-10-05T04:20:55.151Z,7.30
2018-10-05T04:21:55.154Z,8.10
2018-10-05T04:22:55.173Z,7.80
2018-10-05T04:23:55.176Z,8.00
2018-10-05T04:24:55.198Z,8.20
2018-10-05T04:25:55.213Z,7.50
2018-10-05T04:26:55.224Z,6.40
2018-10-05T04:27:55.239Z,7.50
2018-10-05T04:28:55.273Z,6.30
2018-10-05T04:29:55.276Z,6.40
2018-10-05T04:30:55.311Z,6.10
2018-10-05T04:31:55.308Z,7.00
2018-10-05T04:32:55.314Z,6.80
2018-10-05T04:33:55.338Z,6.90
2018-10-05T04:34:55.358Z,7.20
2018-10-05T04:35:55.387Z,7.10
2018-10-05T04:36:55.395Z,6.70
2018-10-05T04:37:55.399Z,7.30
2018-10-05T04:38:55.413Z,7.90
2018-10-05T04:39:55.430Z,7.90
2018-10-05T04:40:55.445Z,7.20
2018-10-05T04:41:55.477Z,7.60
2018-10-05T04:42:55.472Z,7.80
2018-10-05T04:43:55.494Z,8.20
2018-10-05T04:44:55.508Z,8.10
2018-10-05T04:45:55.518Z,8.70
2018-10-05T04:46:55.534Z,9.60
2018-10-05T04:47:55.545Z,9.60
2018-10-05T04:48:55.568Z,10.00
2018-10-05T04:49:55.586Z,9.50
2018-10-05T04:50:55.594Z,10.80
2018-10-05T04:51:55.616Z,10.70
2018-10-05T04:52:55.621Z,9.90
2018-10-05T04:53:55.657Z,9.40
2018-10-05T04:54:55.658Z,9.40
2018-10-05T04:55:55.672Z,9.90
2018-10-05T04:56:55.765Z,9.30
2018-10-05T04:57:55.752Z,8.60
2018-10-05T04:58:55.725Z,9.50
2018-10-05T04:59:55.736Z,8.40
2018-10-05T05:00:55.748Z,8.40
2018-10-05T05:01:55.778Z,8.50
2018-10-05T05:02:55.779Z,8.20
2018-10-05T05:03:55.802Z,8.30
2018-10-05T05:04:55.810Z,8.30
2018-10-05T05:05:55.832Z,8.00
2018-10-05T05:06:55.853Z,7.00
2018-10-05T05:07:55.863Z,7.20
2018-10-05T05:08:55.873Z,7.40
2018-10-05T05:09:55.928Z,8.20
2018-10-05T05:10:55.901Z,7.90
2018-10-05T05:11:55.916Z,8.40
2018-10-05T05:12:55.943Z,8.10
2018-10-05T05:13:55.969Z,7.70
2018-10-05T05:14:55.969Z,7.80
2018-10-05T05:15:55.980Z,8.00
2018-10-05T05:16:55.996Z,7.60
2018-10-05T05:17:56.015Z,8.50
2018-10-05T05:18:56.028Z,8.30
2018-10-05T05:19:56.047Z,8.50
2018-10-05T05:20:56.087Z,8.20
2018-10-05T05:21:56.214Z,9.00
2018-10-05T05:22:56.089Z,8.20
2018-10-05T05:23:56.097Z,8.00
2018-10-05T05:24:56.134Z,8.20
2018-10-05T05:25:56.132Z,7.30
2018-10-05T05:26:56.156Z,7.00
2018-10-05T05:27:56.167Z,8.20
2018-10-05T05:28:56.181Z,6.90
2018-10-05T05:29:56.202Z,6.90
2018-10-05T05:30:56.232Z,7.20
2018-10-05T05:31:56.228Z,7.20
2018-10-05T05:32:56.251Z,7.50
2018-10-05T05:33:56.314Z,6.60
2018-10-05T05:34:56.274Z,6.80
2018-10-05T05:35:56.287Z,6.70
2018-10-05T05:36:56.298Z,7.60
2018-10-05T05:37:56.313Z,7.40
2018-10-05T05:38:56.338Z,7.90
2018-10-05T05:39:56.357Z,7.40
2018-10-05T05:40:56.361Z,7.20
2018-10-05T05:41:56.389Z,7.00
2018-10-05T05:42:56.391Z,6.80
2018-10-05T05:43:56.410Z,6.70
2018-10-05T05:44:56.427Z,6.50
2018-10-05T05:45:56.463Z,7.20
2018-10-05T05:46:56.497Z,6.90
2018-10-05T05:47:56.463Z,6.70
2018-10-05T05:48:56.488Z,6.80
2018-10-05T05:49:56.507Z,7.40
2018-10-05T05:50:56.511Z,6.70
2018-10-05T05:51:56.533Z,6.00
2018-10-05T05:52:56.555Z,6.50
2018-10-05T05:53:56.582Z,6.00
2018-10-05T05:54:56.628Z,6.10
2018-10-05T05:55:56.593Z,6.00
2018-10-05T05:56:56.610Z,6.50
2018-10-05T05:57:56.630Z,5.50
2018-10-05T05:58:56.635Z,5.60
2018-10-05T05:59:56.646Z,5.00
2018-10-05T06:00:56.674Z,6.40
2018-10-05T06:01:56.692Z,6.50
2018-10-05T06:02:56.705Z,6.10
2018-10-05T06:03:56.712Z,5.80
2018-10-05T06:04:56.739Z,6.10
2018-10-05T06:05:56.746Z,6.10
2018-10-05T06:06:56.762Z,5.80
2018-10-05T06:07:56.821Z,6.40
2018-10-05T06:08:56.824Z,6.40
2018-10-05T06:09:56.814Z,6.40
2018-10-05T06:10:56.837Z,6.20
2018-10-05T06:11:56.840Z,6.10
2018-10-05T06:12:56.893Z,6.60
2018-10-05T06:13:56.873Z,6.30
2018-10-05T06:14:56.894Z,6.70
2018-10-05T06:15:56.960Z,5.90
2018-10-05T06:16:56.922Z,6.40
2018-10-05T06:17:56.933Z,5.80
2018-10-05T06:18:56.959Z,5.50
2018-10-05T06:19:56.976Z,4.80
2018-10-05T06:20:56.990Z,5.30
2018-10-05T06:21:57.180Z,4.60
2018-10-05T06:22:57.033Z,5.00
2018-10-05T06:23:57.040Z,5.40
2018-10-05T06:24:57.054Z,5.00
2018-10-05T06:25:57.076Z,4.80
2018-10-05T06:26:57.101Z,4.40
2018-10-05T06:27:57.108Z,5.20
2018-10-05T06:28:57.134Z,5.80
2018-10-05T06:29:57.152Z,4.90
2018-10-05T06:30:57.243Z,4.70
2018-10-05T06:31:57.179Z,4.80
2018-10-05T06:32:57.270Z,4.50
2018-10-05T06:33:57.219Z,5.20
2018-10-05T06:34:57.253Z,4.90
2018-10-05T06:35:57.260Z,5.10
2018-10-05T06:36:57.281Z,4.90
2018-10-05T06:37:57.305Z,5.00
2018-10-05T06:38:57.333Z,4.30
2018-10-05T06:39:57.349Z,4.50
2018-10-05T06:40:57.383Z,4.10
2018-10-05T06:41:57.386Z,5.00
2018-10-05T06:42:57.400Z,4.70
2018-10-05T06:43:57.426Z,4.90
2018-10-05T06:44:57.445Z,5.40
2018-10-05T06:45:57.459Z,5.20
2018-10-05T06:46:57.503Z,5.60
2018-10-05T06:47:57.514Z,6.20
2018-10-05T06:48:57.524Z,5.90
2018-10-05T06:49:57.546Z,5.20
2018-10-05T06:50:57.566Z,5.50
2018-10-05T06:51:57.577Z,5.30
2018-10-05T06:52:57.602Z,4.70
2018-10-05T06:53:57.619Z,4.60
2018-10-05T06:54:57.644Z,4.30
2018-10-05T06:55:57.665Z,4.20
2018-10-05T06:56:57.694Z,4.50
2018-10-05T06:57:57.703Z,4.30
2018-10-05T06:58:57.729Z,4.00
2018-10-05T06:59:57.769Z,3.90
2018-10-05T07:00:57.773Z,4.00
2018-10-05T07:01:57.851Z,4.20
2018-10-05T07:02:57.826Z,4.20
2018-10-05T07:03:57.841Z,4.40
2018-10-05T07:04:57.848Z,3.90
2018-10-05T07:05:57.874Z,4.00
2018-10-05T07:06:57.899Z,4.10
2018-10-05T07:07:57.968Z,3.70
2018-10-05T07:08:57.933Z,4.00
2018-10-05T07:09:57.953Z,3.90
2018-10-05T07:10:58.001Z,4.20
2018-10-05T07:11:58.000Z,4.00
2018-10-05T07:12:58.023Z,4.00
2018-10-05T07:13:58.045Z,4.10
2018-10-05T07:14:58.073Z,4.20
2018-10-05T07:15:58.146Z,3.70
2018-10-05T07:16:58.185Z,4.00
2018-10-05T07:17:58.133Z,4.00
2018-10-05T07:18:58.161Z,4.00
2018-10-05T07:19:58.177Z,4.00
2018-10-05T07:20:58.201Z,4.30
2018-10-05T07:21:58.220Z,3.90
2018-10-05T07:22:58.255Z,4.00
2018-10-05T07:23:58.261Z,4.30
2018-10-05T07:24:58.290Z,4.40
2018-10-05T07:25:58.311Z,4.10
2018-10-05T07:26:58.333Z,4.90
2018-10-05T07:27:58.355Z,4.00
2018-10-05T07:28:58.405Z,4.70
2018-10-05T07:29:58.395Z,4.10
2018-10-05T07:30:58.420Z,4.00
2018-10-05T07:31:58.444Z,4.20
2018-10-05T07:32:58.469Z,4.20
2018-10-05T07:33:58.482Z,4.00
2018-10-05T07:34:58.509Z,4.10
2018-10-05T07:35:58.534Z,4.00
2018-10-05T07:36:58.568Z,4.10
2018-10-05T07:37:58.589Z,3.90
2018-10-05T07:38:58.633Z,3.90
2018-10-05T07:39:58.618Z,4.20
2018-10-05T07:40:58.650Z,4.20
2018-10-05T07:41:58.716Z,4.00
2018-10-05T07:42:58.734Z,4.10
2018-10-05T07:43:58.712Z,4.00
2018-10-05T07:44:58.738Z,4.00
2018-10-05T07:45:58.758Z,4.40
2018-10-05T07:46:58.777Z,4.70
2018-10-05T07:47:58.807Z,4.90
2018-10-05T07:48:58.830Z,4.30
2018-10-05T07:49:58.845Z,4.60
2018-10-05T07:50:58.882Z,4.00
2018-10-05T07:51:58.970Z,4.10
2018-10-05T07:52:58.920Z,4.60
2018-10-05T07:53:58.938Z,4.10
2018-10-05T07:54:58.962Z,4.20
2018-10-05T07:55:58.983Z,4.00
2018-10-05T07:56:59.014Z,4.10
2018-10-05T07:57:59.107Z,4.40
2018-10-05T07:58:59.057Z,3.70
2018-10-05T07:59:59.072Z,4.40
2018-10-05T08:00:59.099Z,4.50
2018-10-05T08:01:59.129Z,3.90
2018-10-05T08:02:59.170Z,3.80
2018-10-05T08:03:59.169Z,4.60
2018-10-05T08:04:59.207Z,4.00
2018-10-05T08:05:59.240Z,4.00
2018-10-05T08:06:59.237Z,4.10
2018-10-05T08:07:59.257Z,4.20
2018-10-05T08:08:59.291Z,3.60
2018-10-05T08:09:59.309Z,4.10
2018-10-05T08:10:59.331Z,3.90
2018-10-05T08:11:59.365Z,4.30
2018-10-05T08:12:59.386Z,4.30
2018-10-05T08:13:59.399Z,4.50
2018-10-05T08:14:59.428Z,3.70
2018-10-05T08:15:59.440Z,3.70
2018-10-05T08:16:59.469Z,4.00
2018-10-05T08:17:59.487Z,3.80
2018-10-05T08:18:59.512Z,3.60
2018-10-05T08:19:59.535Z,3.60
2018-10-05T08:20:59.602Z,3.50
2018-10-05T08:21:59.609Z,3.70
2018-10-05T08:22:59.607Z,3.80
2018-10-05T08:23:59.614Z,3.70
2018-10-05T08:24:59.648Z,3.10
2018-10-05T08:25:59.661Z,3.80
2018-10-05T08:26:59.688Z,3.60
2018-10-05T08:27:59.795Z,4.20
2018-10-05T08:28:59.731Z,3.50
2018-10-05T08:29:59.766Z,3.90
2018-10-05T08:30:59.772Z,4.30
2018-10-05T08:31:59.790Z,4.20
2018-10-05T08:32:59.844Z,3.80
2018-10-05T08:33:59.829Z,3.70
2018-10-05T08:34:59.853Z,3.90
2018-10-05T08:35:59.861Z,4.30
2018-10-05T08:36:59.897Z,3.90
2018-10-05T08:37:59.907Z,4.50
2018-10-05T08:38:59.925Z,4.80
2018-10-05T08:40:00.052Z,4.30
2018-10-05T08:40:59.977Z,4.80
2018-10-05T08:41:59.983Z,4.20
2018-10-05T08:43:00.009Z,4.10
2018-10-05T08:44:00.025Z,4.10
2018-10-05T08:45:00.052Z,4.20
2018-10-05T08:46:00.109Z,3.80
2018-10-05T08:47:00.086Z,4.20
2018-10-05T08:48:00.097Z,3.80
2018-10-05T08:49:00.122Z,4.20
2018-10-05T08:50:00.142Z,4.30
2018-10-05T08:51:00.157Z,4.20
2018-10-05T08:52:00.353Z,4.30
2018-10-05T08:53:00.199Z,4.30
2018-10-05T08:54:00.229Z,4.70
2018-10-05T08:55:00.239Z,3.60
2018-10-05T08:56:00.259Z,4.50
2018-10-05T08:57:00.280Z,4.60
2018-10-05T08:58:00.291Z,3.80
2018-10-05T08:59:00.314Z,4.20
2018-10-05T09:00:00.367Z,3.80
2018-10-05T09:01:00.357Z,4.40
2018-10-05T09:02:00.376Z,3.90
2018-10-05T09:03:00.387Z,4.10
2018-10-05T09:04:00.402Z,4.20
2018-10-05T09:05:00.433Z,4.30
2018-10-05T09:06:00.455Z,4.30
2018-10-05T09:07:00.464Z,3.90
2018-10-05T09:08:00.491Z,4.40
2018-10-05T09:09:00.504Z,3.90
2018-10-05T09:10:00.529Z,3.90
2018-10-05T09:11:00.538Z,3.90
2018-10-05T09:12:00.557Z,3.70
2018-10-05T09:13:00.590Z,4.30
2018-10-05T09:14:00.603Z,4.10
2018-10-05T09:15:00.619Z,4.40
2018-10-05T09:16:00.640Z,4.00
2018-10-05T09:17:00.654Z,3.30
2018-10-05T09:18:00.680Z,4.10
2018-10-05T09:19:00.703Z,3.90
2018-10-05T09:20:00.727Z,4.00
2018-10-05T09:21:00.732Z,3.70
2018-10-05T09:22:00.761Z,3.40
2018-10-05T09:23:00.771Z,3.60
2018-10-05T09:24:00.846Z,3.90
2018-10-05T09:25:00.822Z,3.20
2018-10-05T09:26:00.904Z,3.80
2018-10-05T09:27:00.847Z,3.30
2018-10-05T09:28:00.862Z,3.70
2018-10-05T09:29:00.896Z,3.40
2018-10-05T09:30:00.908Z,3.40
2018-10-05T09:31:00.920Z,3.70
2018-10-05T09:32:00.940Z,3.50
2018-10-05T09:33:00.959Z,3.10
2018-10-05T09:34:00.976Z,3.40
2018-10-05T09:35:00.999Z,3.40
2018-10-05T09:36:01.032Z,3.60
2018-10-05T09:37:01.041Z,3.80
2018-10-05T09:38:01.086Z,3.20
2018-10-05T09:39:01.075Z,3.40
2018-10-05T09:40:01.102Z,3.80
2018-10-05T09:41:01.114Z,3.20
2018-10-05T09:42:01.133Z,3.40
2018-10-05T09:43:01.160Z,3.50
2018-10-05T09:44:01.173Z,3.10
2018-10-05T09:45:01.248Z,3.10
2018-10-05T09:46:01.211Z,2.80
2018-10-05T09:47:01.228Z,2.80
2018-10-05T09:48:01.250Z,3.60
2018-10-05T09:49:01.265Z,3.30
2018-10-05T09:50:01.307Z,3.30
2018-10-05T09:51:01.317Z,2.80
2018-10-05T09:52:01.345Z,3.50
2018-10-05T09:53:01.350Z,3.80
2018-10-05T09:54:01.365Z,3.20
2018-10-05T09:55:01.383Z,3.60
2018-10-05T09:56:01.423Z,3.40
2018-10-05T09:57:01.423Z,3.40
2018-10-05T09:58:01.443Z,3.30
2018-10-05T09:59:01.498Z,3.40
2018-10-05T10:00:01.626Z,2.50
2018-10-05T10:01:01.505Z,2.60
2018-10-05T10:02:01.519Z,3.40
2018-10-05T10:03:01.556Z,3.40
2018-10-05T10:04:01.571Z,3.40
2018-10-05T10:05:01.590Z,3.40
2018-10-05T10:06:01.610Z,3.00
2018-10-05T10:07:01.620Z,3.00
2018-10-05T10:08:01.700Z,3.40
2018-10-05T10:09:01.661Z,2.90
2018-10-05T10:10:01.699Z,3.10
2018-10-05T10:11:01.696Z,2.70
2018-10-05T10:12:01.728Z,3.10
2018-10-05T10:13:01.755Z,2.80
2018-10-05T10:14:01.856Z,3.10
2018-10-05T10:15:01.782Z,3.20
2018-10-05T10:16:01.796Z,3.20
2018-10-05T10:17:01.817Z,3.50
2018-10-05T10:18:01.838Z,3.00
2018-10-05T10:19:01.891Z,3.30
2018-10-05T10:20:01.876Z,3.00
2018-10-05T10:21:01.944Z,3.20
2018-10-05T10:22:01.918Z,3.50
2018-10-05T10:23:01.932Z,3.00
2018-10-05T10:24:01.952Z,3.20
2018-10-05T10:25:01.971Z,3.80
2018-10-05T10:26:02.018Z,3.40
2018-10-05T10:27:02.018Z,3.40
2018-10-05T10:28:02.089Z,3.10
2018-10-05T10:29:02.086Z,3.20
2018-10-05T10:30:02.088Z,3.50
2018-10-05T10:31:02.092Z,3.90
2018-10-05T10:32:02.113Z,3.10
2018-10-05T10:33:02.141Z,3.70
2018-10-05T10:34:02.154Z,3.20
2018-10-05T10:35:02.171Z,3.30
2018-10-05T10:36:02.191Z,3.80
2018-10-05T10:37:02.219Z,3.60
2018-10-05T10:38:02.260Z,2.90
2018-10-05T10:39:02.254Z,3.40
2018-10-05T10:40:02.321Z,3.20
2018-10-05T10:41:02.288Z,3.50
2018-10-05T10:42:02.311Z,3.60
2018-10-05T10:43:02.337Z,4.20
2018-10-05T10:44:02.352Z,4.90
2018-10-05T10:45:02.378Z,8.40
2018-10-05T10:46:02.403Z,9.50
2018-10-05T10:47:02.414Z,6.20
2018-10-05T10:48:02.477Z,4.40
2018-10-05T10:49:02.461Z,8.00
2018-10-05T10:50:02.475Z,8.70
2018-10-05T10:51:02.488Z,6.30
2018-10-05T10:52:02.533Z,5.50
2018-10-05T10:53:02.642Z,3.20
2018-10-05T10:54:02.625Z,3.90
2018-10-05T10:55:02.644Z,3.50
2018-10-05T10:56:02.642Z,3.40
2018-10-05T10:57:02.624Z,3.80
2018-10-05T10:58:02.639Z,3.90
2018-10-05T10:59:02.665Z,3.70
2018-10-05T11:00:02.683Z,3.70
2018-10-05T11:01:02.689Z,3.30
2018-10-05T11:02:02.719Z,3.00
2018-10-05T11:03:02.765Z,3.70
2018-10-05T11:04:02.804Z,3.30
2018-10-05T11:05:02.826Z,3.40
2018-10-05T11:06:02.804Z,3.20
2018-10-05T11:07:02.816Z,3.20
2018-10-05T11:08:02.838Z,3.70
2018-10-05T11:09:02.851Z,3.60
2018-10-05T11:10:02.878Z,3.40
2018-10-05T11:11:02.916Z,3.30
2018-10-05T11:12:02.912Z,3.80
2018-10-05T11:13:02.938Z,3.80
2018-10-05T11:14:02.958Z,3.50
2018-10-05T11:15:02.978Z,3.90
2018-10-05T11:16:03.020Z,3.20
2018-10-05T11:17:03.027Z,3.70
2018-10-05T11:18:03.042Z,3.80
2018-10-05T11:19:03.052Z,3.30
2018-10-05T11:20:03.071Z,4.10
2018-10-05T11:21:03.097Z,3.80
2018-10-05T11:22:03.115Z,4.30
2018-10-05T11:23:03.144Z,3.60
2018-10-05T11:24:03.154Z,3.80
2018-10-05T11:25:03.175Z,3.60
2018-10-05T11:26:03.202Z,3.70
2018-10-05T11:27:03.218Z,3.90
2018-10-05T11:28:03.239Z,3.60
2018-10-05T11:29:03.255Z,3.90
2018-10-05T11:30:03.281Z,4.70
2018-10-05T11:31:03.294Z,4.90
2018-10-05T11:32:03.328Z,4.90
2018-10-05T11:33:03.336Z,5.50
2018-10-05T11:34:03.359Z,4.70
2018-10-05T11:35:03.382Z,4.90
2018-10-05T11:36:03.400Z,4.30
2018-10-05T11:37:03.423Z,4.30
2018-10-05T11:38:03.441Z,4.80
2018-10-05T11:39:03.457Z,4.30
2018-10-05T11:40:03.493Z,6.50
2018-10-05T11:41:03.501Z,4.90
2018-10-05T11:42:03.519Z,4.10
2018-10-05T11:43:03.567Z,4.40
2018-10-05T11:44:03.567Z,5.30
2018-10-05T11:45:03.582Z,4.20
2018-10-05T11:46:03.599Z,7.70
2018-10-05T11:47:03.625Z,7.00
2018-10-05T11:48:03.650Z,6.80
2018-10-05T11:49:03.667Z,6.30
2018-10-05T11:50:03.679Z,4.20
2018-10-05T11:51:03.702Z,3.90
2018-10-05T11:52:03.736Z,4.80
2018-10-05T11:53:03.740Z,5.90
2018-10-05T11:54:03.761Z,5.80
2018-10-05T11:55:03.785Z,4.40
2018-10-05T11:56:03.806Z,4.40
2018-10-05T11:57:03.854Z,4.50
2018-10-05T11:58:03.851Z,3.70
2018-10-05T11:59:03.869Z,3.50
2018-10-05T12:00:03.888Z,4.00
2018-10-05T12:01:03.904Z,3.50
2018-10-05T12:02:03.922Z,4.70
2018-10-05T12:03:03.965Z,5.20
2018-10-05T12:04:03.965Z,6.40
2018-10-05T12:05:04.049Z,4.90
2018-10-05T12:06:04.015Z,5.00
2018-10-05T12:07:04.031Z,4.60
2018-10-05T12:08:04.074Z,3.20
2018-10-05T12:09:04.067Z,3.80
2018-10-05T12:10:04.096Z,3.40
2018-10-05T12:11:04.107Z,3.40
2018-10-05T12:12:04.126Z,3.80
2018-10-05T12:13:04.168Z,3.70
2018-10-05T12:14:04.172Z,3.70
2018-10-05T12:15:04.196Z,3.70
2018-10-05T12:16:04.215Z,3.70
2018-10-05T12:17:04.227Z,4.00
2018-10-05T12:18:04.257Z,4.00
2018-10-05T12:19:04.279Z,4.50
2018-10-05T12:20:04.380Z,3.50
2018-10-05T12:21:04.329Z,3.40
2018-10-05T12:22:04.342Z,3.40
2018-10-05T12:23:04.353Z,3.70
2018-10-05T12:24:04.393Z,3.60
2018-10-05T12:25:04.401Z,4.10
2018-10-05T12:26:04.411Z,3.50
2018-10-05T12:27:04.433Z,3.50
2018-10-05T12:28:04.456Z,3.70
2018-10-05T12:29:04.475Z,3.70
2018-10-05T12:30:04.600Z,3.90
2018-10-05T12:31:04.534Z,3.20
2018-10-05T12:32:04.537Z,3.20
2018-10-05T12:33:04.609Z,3.20
2018-10-05T12:34:04.580Z,3.40
2018-10-05T12:35:04.603Z,3.80
2018-10-05T12:36:04.618Z,3.70
2018-10-05T12:37:04.668Z,3.30
2018-10-05T12:38:04.672Z,3.20
2018-10-05T12:39:04.676Z,2.90
2018-10-05T12:40:04.715Z,4.10
2018-10-05T12:41:04.722Z,3.70
2018-10-05T12:42:04.794Z,3.70
2018-10-05T12:43:04.768Z,3.40
2018-10-05T12:44:04.783Z,3.20
2018-10-05T12:45:04.804Z,3.00
2018-10-05T12:46:04.829Z,3.20
2018-10-05T12:47:04.891Z,3.40
2018-10-05T12:48:04.871Z,3.00
2018-10-05T12:49:04.885Z,3.40
2018-10-05T12:50:04.968Z,2.60
2018-10-05T12:51:04.926Z,3.00
2018-10-05T12:52:04.942Z,3.10
2018-10-05T12:53:04.962Z,3.00
2018-10-05T12:54:04.985Z,3.10
2018-10-05T12:55:05.007Z,3.00
2018-10-05T12:56:05.030Z,3.30
2018-10-05T12:57:05.054Z,3.80
2018-10-05T12:58:05.128Z,3.00
2018-10-05T12:59:05.103Z,3.40
2018-10-05T13:00:05.123Z,2.90
2018-10-05T13:01:05.133Z,3.40
2018-10-05T13:02:05.152Z,3.50
2018-10-05T13:03:05.182Z,2.90
2018-10-05T13:04:05.196Z,3.10
2018-10-05T13:05:05.308Z,3.00
2018-10-05T13:06:05.235Z,3.30
2018-10-05T13:07:05.262Z,2.70
2018-10-05T13:08:05.278Z,2.80
2018-10-05T13:09:05.315Z,3.40
2018-10-05T13:10:05.316Z,3.00
2018-10-05T13:11:05.343Z,3.10
2018-10-05T13:12:05.364Z,3.00
2018-10-05T13:13:05.530Z,2.60
2018-10-05T13:14:05.394Z,3.20
2018-10-05T13:15:05.426Z,3.10
2018-10-05T13:16:05.444Z,2.90
2018-10-05T13:17:05.462Z,3.00
2018-10-05T13:18:05.480Z,2.90
2018-10-05T13:19:05.501Z,2.70